RK9E weather

Public forecast

Using degrees Celsius for public forecast. Weather courtesy of forecast.io.

Closest aviation weather report (METAR) to N 318 Helipad

Closest report is Jeju International Airport, 23.6 nm (43.6 km) W. Retrieved 2020/08/12 11:00 UTC (53 minutes ago):

RKPC 121100Z 21009KT 190V250 9999 FEW030 SCT200 30/24 Q1013 WS R07 R25 NOSIG

Closest aviation forecast (TAF) to N 318 Helipad

Closest forecast is Jeju International Airport, 23.6 nm (43.6 km) W. Retrieved 2020/08/12 06:00 UTC (6 hours ago):

TAF RKPC 120500Z 1206/1312 23018G35KT 9999 SCT030 BKN160 TN27/1220Z TX34/1305Z BECMG 1209/1210 26009KT BECMG 1215/1216 03006KT BECMG 1221/1222 12006KT CAVOK BECMG 1301/1302 23015G25KT BECMG 1309/1310 04008KT